sensor_id;sensor_type;location;lat;lon;timestamp;pressure;altitude;pressure_sealevel;temperature;humidity
11542;BME280;5827;49.482;7.716;2023-04-28T00:00:53;98576.56;;;12.30;100.00
11542;BME280;5827;49.482;7.716;2023-04-28T00:02:54;98578.47;;;12.35;100.00
11542;BME280;5827;49.482;7.716;2023-04-28T00:04:56;98580.06;;;12.36;100.00
11542;BME280;5827;49.482;7.716;2023-04-28T00:06:58;98573.72;;;12.47;100.00
11542;BME280;5827;49.482;7.716;2023-04-28T00:08:59;98569.91;;;12.38;100.00
11542;BME280;5827;49.482;7.716;2023-04-28T00:11:01;98568.03;;;12.43;99.39
11542;BME280;5827;49.482;7.716;2023-04-28T00:13:04;98574.75;;;12.46;99.06
11542;BME280;5827;49.482;7.716;2023-04-28T00:15:06;98580.72;;;12.53;98.96
11542;BME280;5827;49.482;7.716;2023-04-28T00:17:08;98576.28;;;12.32;99.30
11542;BME280;5827;49.482;7.716;2023-04-28T00:19:09;98573.91;;;12.40;99.94
11542;BME280;5827;49.482;7.716;2023-04-28T00:21:11;98571.81;;;12.48;100.00
11542;BME280;5827;49.482;7.716;2023-04-28T00:23:12;98567.00;;;12.55;100.00
11542;BME280;5827;49.482;7.716;2023-04-28T00:25:14;98568.34;;;12.47;100.00
11542;BME280;5827;49.482;7.716;2023-04-28T00:27:15;98560.78;;;12.44;100.00
11542;BME280;5827;49.482;7.716;2023-04-28T00:29:18;98560.94;;;12.69;100.00
11542;BME280;5827;49.482;7.716;2023-04-28T00:31:20;98556.81;;;12.57;99.57
11542;BME280;5827;49.482;7.716;2023-04-28T00:33:21;98551.44;;;12.57;99.77
11542;BME280;5827;49.482;7.716;2023-04-28T00:35:23;98551.94;;;12.49;100.00
11542;BME280;5827;49.482;7.716;2023-04-28T00:37:24;98541.72;;;12.45;100.00
11542;BME280;5827;49.482;7.716;2023-04-28T00:39:26;98537.72;;;12.53;100.00
11542;BME280;5827;49.482;7.716;2023-04-28T00:41:27;98537.69;;;12.43;100.00
11542;BME280;5827;49.482;7.716;2023-04-28T00:43:29;98527.81;;;12.64;100.00
11542;BME280;5827;49.482;7.716;2023-04-28T00:45:32;98535.09;;;12.68;100.00
11542;BME280;5827;49.482;7.716;2023-04-28T00:47:33;98533.50;;;12.72;99.72
11542;BME280;5827;49.482;7.716;2023-04-28T00:49:35;98529.69;;;12.58;100.00
11542;BME280;5827;49.482;7.716;2023-04-28T00:51:37;98531.75;;;12.46;100.00
11542;BME280;5827;49.482;7.716;2023-04-28T00:53:38;98528.28;;;12.45;100.00
11542;BME280;5827;49.482;7.716;2023-04-28T00:55:40;98525.13;;;12.59;100.00
11542;BME280;5827;49.482;7.716;2023-04-28T00:57:42;98519.94;;;12.42;100.00
11542;BME280;5827;49.482;7.716;2023-04-28T00:59:43;98517.50;;;12.40;100.00
11542;BME280;5827;49.482;7.716;2023-04-28T01:01:46;98519.81;;;12.21;100.00
11542;BME280;5827;49.482;7.716;2023-04-28T01:03:48;98515.81;;;12.24;100.00
11542;BME280;5827;49.482;7.716;2023-04-28T01:05:49;98518.03;;;12.37;100.00
11542;BME280;5827;49.482;7.716;2023-04-28T01:07:51;98514.03;;;12.45;100.00
11542;BME280;5827;49.482;7.716;2023-04-28T01:09:53;98511.38;;;12.50;100.00
11542;BME280;5827;49.482;7.716;2023-04-28T01:11:54;98503.88;;;12.52;100.00
11542;BME280;5827;49.482;7.716;2023-04-28T01:13:57;98510.03;;;12.53;100.00
11542;BME280;5827;49.482;7.716;2023-04-28T01:15:59;98525.91;;;12.59;100.00
11542;BME280;5827;49.482;7.716;2023-04-28T01:18:02;98524.78;;;12.50;100.00
11542;BME280;5827;49.482;7.716;2023-04-28T01:20:05;98521.31;;;12.50;100.00
11542;BME280;5827;49.482;7.716;2023-04-28T01:22:06;98507.81;;;12.39;100.00
11542;BME280;5827;49.482;7.716;2023-04-28T01:24:11;98505.44;;;12.43;100.00
11542;BME280;5827;49.482;7.716;2023-04-28T01:26:12;98518.91;;;12.53;100.00
11542;BME280;5827;49.482;7.716;2023-04-28T01:28:14;98524.78;;;12.45;100.00
11542;BME280;5827;49.482;7.716;2023-04-28T01:30:15;98521.56;;;12.43;100.00
11542;BME280;5827;49.482;7.716;2023-04-28T01:32:17;98521.56;;;12.43;100.00
11542;BME280;5827;49.482;7.716;2023-04-28T01:34:18;98511.34;;;12.45;100.00
11542;BME280;5827;49.482;7.716;2023-04-28T01:36:20;98499.56;;;12.51;100.00
11542;BME280;5827;49.482;7.716;2023-04-28T01:38:22;98505.19;;;12.50;100.00
11542;BME280;5827;49.482;7.716;2023-04-28T01:40:25;98508.41;;;12.46;100.00
11542;BME280;5827;49.482;7.716;2023-04-28T01:42:27;98500.38;;;12.52;100.00
11542;BME280;5827;49.482;7.716;2023-04-28T01:44:28;98499.28;;;12.53;100.00
11542;BME280;5827;49.482;7.716;2023-04-28T01:46:30;98502.19;;;12.46;100.00
11542;BME280;5827;49.482;7.716;2023-04-28T01:48:31;98504.66;;;12.53;100.00
11542;BME280;5827;49.482;7.716;2023-04-28T01:50:33;98497.94;;;12.50;100.00
11542;BME280;5827;49.482;7.716;2023-04-28T01:52:34;98502.50;;;12.50;100.00
11542;BME280;5827;49.482;7.716;2023-04-28T01:54:35;98504.66;;;12.48;100.00
11542;BME280;5827;49.482;7.716;2023-04-28T01:56:38;98506.78;;;12.45;100.00
11542;BME280;5827;49.482;7.716;2023-04-28T01:58:40;98497.47;;;12.11;100.00
11542;BME280;5827;49.482;7.716;2023-04-28T02:00:41;98497.81;;;12.25;100.00
11542;BME280;5827;49.482;7.716;2023-04-28T02:02:43;98505.91;;;12.30;100.00
11542;BME280;5827;49.482;7.716;2023-04-28T02:04:44;98506.19;;;12.28;100.00
11542;BME280;5827;49.482;7.716;2023-04-28T02:06:46;98512.88;;;12.31;100.00
11542;BME280;5827;49.482;7.716;2023-04-28T02:08:47;98514.41;;;12.16;100.00
11542;BME280;5827;49.482;7.716;2023-04-28T02:10:49;98509.63;;;12.24;100.00
11542;BME280;5827;49.482;7.716;2023-04-28T02:12:52;98519.59;;;12.28;100.00
11542;BME280;5827;49.482;7.716;2023-04-28T02:14:53;98522.31;;;12.33;100.00
11542;BME280;5827;49.482;7.716;2023-04-28T02:16:55;98520.91;;;12.26;100.00
11542;BME280;5827;49.482;7.716;2023-04-28T02:18:57;98517.16;;;12.27;100.00
11542;BME280;5827;49.482;7.716;2023-04-28T02:21:07;98513.97;;;12.30;100.00
11542;BME280;5827;49.482;7.716;2023-04-28T02:23:09;98505.94;;;12.40;100.00
11542;BME280;5827;49.482;7.716;2023-04-28T02:25:10;98517.78;;;12.39;100.00
11542;BME280;5827;49.482;7.716;2023-04-28T02:27:12;98508.34;;;12.36;100.00
11542;BME280;5827;49.482;7.716;2023-04-28T02:29:15;98503.78;;;12.37;100.00
11542;BME280;5827;49.482;7.716;2023-04-28T02:31:16;98497.34;;;12.38;100.00
11542;BME280;5827;49.482;7.716;2023-04-28T02:33:18;98500.28;;;12.36;100.00
11542;BME280;5827;49.482;7.716;2023-04-28T02:35:19;98500.56;;;12.40;100.00
11542;BME280;5827;49.482;7.716;2023-04-28T02:37:21;98492.19;;;12.31;100.00
11542;BME280;5827;49.482;7.716;2023-04-28T02:39:22;98480.66;;;12.31;100.00
11542;BME280;5827;49.482;7.716;2023-04-28T02:41:26;98472.88;;;12.34;100.00
11542;BME280;5827;49.482;7.716;2023-04-28T02:43:29;98482.25;;;12.32;100.00
11542;BME280;5827;49.482;7.716;2023-04-28T02:45:32;98472.91;;;12.39;100.00
11542;BME280;5827;49.482;7.716;2023-04-28T02:47:34;98470.75;;;12.41;100.00
11542;BME280;5827;49.482;7.716;2023-04-28T02:49:36;98472.88;;;12.34;100.00
11542;BME280;5827;49.482;7.716;2023-04-28T02:51:37;98475.06;;;12.37;100.00
11542;BME280;5827;49.482;7.716;2023-04-28T02:53:39;98459.97;;;12.31;100.00
11542;BME280;5827;49.482;7.716;2023-04-28T02:55:41;98457.84;;;12.33;100.00
11542;BME280;5827;49.482;7.716;2023-04-28T02:57:42;98451.13;;;12.36;100.00
11542;BME280;5827;49.482;7.716;2023-04-28T02:59:43;98461.88;;;12.36;100.00
11542;BME280;5827;49.482;7.716;2023-04-28T03:01:46;98456.19;;;12.32;100.00
11542;BME280;5827;49.482;7.716;2023-04-28T03:03:48;98453.56;;;12.37;100.00
11542;BME280;5827;49.482;7.716;2023-04-28T03:05:50;98454.59;;;12.36;100.00
11542;BME280;5827;49.482;7.716;2023-04-28T03:07:51;98463.53;;;12.42;100.00
11542;BME280;5827;49.482;7.716;2023-04-28T03:09:53;98465.09;;;12.33;100.00
11542;BME280;5827;49.482;7.716;2023-04-28T03:11:54;98464.81;;;12.34;100.00
11542;BME280;5827;49.482;7.716;2023-04-28T03:13:56;98453.81;;;12.41;100.00
11542;BME280;5827;49.482;7.716;2023-04-28T03:15:57;98452.72;;;12.37;100.00
11542;BME280;5827;49.482;7.716;2023-04-28T03:18:00;98449.53;;;12.40;100.00
11542;BME280;5827;49.482;7.716;2023-04-28T03:20:01;98454.09;;;12.44;100.00
11542;BME280;5827;49.482;7.716;2023-04-28T03:22:03;98453.28;;;12.39;100.00
11542;BME280;5827;49.482;7.716;2023-04-28T03:24:05;98454.09;;;12.44;100.00
11542;BME280;5827;49.482;7.716;2023-04-28T03:26:07;98450.03;;;12.32;100.00
11542;BME280;5827;49.482;7.716;2023-04-28T03:28:09;98448.75;;;12.44;100.00
11542;BME280;5827;49.482;7.716;2023-04-28T03:30:11;98447.94;;;12.49;100.00
11542;BME280;5827;49.482;7.716;2023-04-28T03:32:13;98448.50;;;12.51;100.00
11542;BME280;5827;49.482;7.716;2023-04-28T03:34:16;98451.19;;;12.51;100.00
11542;BME280;5827;49.482;7.716;2023-04-28T03:36:17;98451.22;;;12.56;100.00
11542;BME280;5827;49.482;7.716;2023-04-28T03:38:19;98440.41;;;12.46;100.00
11542;BME280;5827;49.482;7.716;2023-04-28T03:40:21;98438.28;;;12.48;100.00
11542;BME280;5827;49.482;7.716;2023-04-28T03:42:23;98442.84;;;12.53;100.00
11542;BME280;5827;49.482;7.716;2023-04-28T03:44:24;98442.84;;;12.53;100.00
11542;BME280;5827;49.482;7.716;2023-04-28T03:46:26;98431.31;;;12.52;100.00
11542;BME280;5827;49.482;7.716;2023-04-28T03:48:28;98431.81;;;12.44;100.00
11542;BME280;5827;49.482;7.716;2023-04-28T03:50:31;98416.66;;;12.23;100.00
11542;BME280;5827;49.482;7.716;2023-04-28T03:52:33;98420.50;;;12.37;100.00
11542;BME280;5827;49.482;7.716;2023-04-28T03:54:34;98425.91;;;12.47;100.00
11542;BME280;5827;49.482;7.716;2023-04-28T03:56:35;98422.44;;;12.52;100.00
11542;BME280;5827;49.482;7.716;2023-04-28T03:58:37;98417.28;;;12.35;100.00
11542;BME280;5827;49.482;7.716;2023-04-28T04:00:38;98418.66;;;12.42;100.00
11542;BME280;5827;49.482;7.716;2023-04-28T04:02:40;98415.97;;;12.48;100.00
11542;BME280;5827;49.482;7.716;2023-04-28T04:04:41;98412.19;;;12.38;100.00
11542;BME280;5827;49.482;7.716;2023-04-28T04:06:44;98401.97;;;12.45;100.00
11542;BME280;5827;49.482;7.716;2023-04-28T04:08:46;98399.03;;;12.42;100.00
11542;BME280;5827;49.482;7.716;2023-04-28T04:10:47;98395.13;;;12.07;100.00
11542;BME280;5827;49.482;7.716;2023-04-28T04:12:49;98397.63;;;12.19;100.00
11542;BME280;5827;49.482;7.716;2023-04-28T04:14:50;98401.31;;;12.08;100.00
11542;BME280;5827;49.482;7.716;2023-04-28T04:16:52;98402.44;;;12.22;100.00
11542;BME280;5827;49.482;7.716;2023-04-28T04:18:54;98394.66;;;12.20;100.00
11542;BME280;5827;49.482;7.716;2023-04-28T04:20:56;98399.19;;;12.15;100.00
11542;BME280;5827;49.482;7.716;2023-04-28T04:22:58;98393.56;;;12.21;100.00
11542;BME280;5827;49.482;7.716;2023-04-28T04:25:00;98387.94;;;12.23;100.00
11542;BME280;5827;49.482;7.716;2023-04-28T04:27:02;98387.72;;;12.35;100.00
11542;BME280;5827;49.482;7.716;2023-04-28T04:29:04;98385.03;;;12.30;100.00
11542;BME280;5827;49.482;7.716;2023-04-28T04:31:05;98374.53;;;12.28;100.00
11542;BME280;5827;49.482;7.716;2023-04-28T04:33:07;98378.81;;;12.24;100.00
11542;BME280;5827;49.482;7.716;2023-04-28T04:35:09;98379.38;;;12.31;100.00
11542;BME280;5827;49.482;7.716;2023-04-28T04:37:10;98385.84;;;12.35;100.00
11542;BME280;5827;49.482;7.716;2023-04-28T04:39:13;98384.50;;;12.38;100.00
11542;BME280;5827;49.482;7.716;2023-04-28T04:41:14;98386.63;;;12.36;100.00
11542;BME280;5827;49.482;7.716;2023-04-28T04:43:16;98388.53;;;12.40;100.00
11542;BME280;5827;49.482;7.716;2023-04-28T04:45:18;98386.41;;;12.42;100.00
11542;BME280;5827;49.482;7.716;2023-04-28T04:47:19;98383.97;;;12.41;100.00
11542;BME280;5827;49.482;7.716;2023-04-28T04:49:21;98387.75;;;12.45;100.00
11542;BME280;5827;49.482;7.716;2023-04-28T04:51:22;98389.91;;;12.53;100.00
11542;BME280;5827;49.482;7.716;2023-04-28T04:53:24;98392.34;;;12.55;100.00
11542;BME280;5827;49.482;7.716;2023-04-28T04:55:27;98387.50;;;12.52;100.00
11542;BME280;5827;49.482;7.716;2023-04-28T04:57:29;98384.28;;;12.55;100.00
11542;BME280;5827;49.482;7.716;2023-04-28T04:59:30;98381.06;;;12.53;100.00
11542;BME280;5827;49.482;7.716;2023-04-28T05:01:32;98381.88;;;12.58;100.00
11542;BME280;5827;49.482;7.716;2023-04-28T05:03:33;98381.34;;;12.56;100.00
11542;BME280;5827;49.482;7.716;2023-04-28T05:05:35;98386.69;;;12.51;100.00
11542;BME280;5827;49.482;7.716;2023-04-28T05:07:36;98386.13;;;12.39;100.00
11542;BME280;5827;49.482;7.716;2023-04-28T05:09:38;98381.84;;;12.53;100.00
11542;BME280;5827;49.482;7.716;2023-04-28T05:11:40;98382.66;;;12.54;100.00
11542;BME280;5827;49.482;7.716;2023-04-28T05:13:42;98386.97;;;12.60;100.00
11542;BME280;5827;49.482;7.716;2023-04-28T05:15:43;98391.81;;;12.63;100.00
11542;BME280;5827;49.482;7.716;2023-04-28T05:17:45;98381.88;;;12.58;100.00
11542;BME280;5827;49.482;7.716;2023-04-28T05:19:46;98371.41;;;12.67;100.00
11542;BME280;5827;49.482;7.716;2023-04-28T05:21:48;98374.63;;;12.69;100.00
11542;BME280;5827;49.482;7.716;2023-04-28T05:23:51;98371.16;;;12.84;100.00
11542;BME280;5827;49.482;7.716;2023-04-28T05:25:53;98361.97;;;12.54;100.00
11542;BME280;5827;49.482;7.716;2023-04-28T05:27:56;98367.38;;;12.75;100.00
11542;BME280;5827;49.482;7.716;2023-04-28T05:29:57;98367.94;;;12.97;100.00
11542;BME280;5827;49.482;7.716;2023-04-28T05:31:59;98377.91;;;13.02;100.00
11542;BME280;5827;49.482;7.716;2023-04-28T05:34:01;98391.06;;;12.98;100.00
11542;BME280;5827;49.482;7.716;2023-04-28T05:36:03;98396.44;;;12.88;100.00
11542;BME280;5827;49.482;7.716;2023-04-28T05:38:04;98382.66;;;12.49;100.00
11542;BME280;5827;49.482;7.716;2023-04-28T05:40:08;98388.91;;;12.80;100.00
11542;BME280;5827;49.482;7.716;2023-04-28T05:42:10;98377.50;;;12.37;100.00
11542;BME280;5827;49.482;7.716;2023-04-28T05:44:12;98385.38;;;12.64;100.00
11542;BME280;5827;49.482;7.716;2023-04-28T05:46:14;98382.44;;;12.70;100.00
11542;BME280;5827;49.482;7.716;2023-04-28T05:48:15;98382.16;;;12.67;100.00
11542;BME280;5827;49.482;7.716;2023-04-28T05:50:17;98382.72;;;12.74;100.00
11542;BME280;5827;49.482;7.716;2023-04-28T05:52:18;98388.91;;;12.75;100.00
11542;BME280;5827;49.482;7.716;2023-04-28T05:54:20;98388.63;;;12.81;100.00
11542;BME280;5827;49.482;7.716;2023-04-28T05:56:21;98393.19;;;12.76;100.00
11542;BME280;5827;49.482;7.716;2023-04-28T05:58:23;98389.72;;;12.85;100.00
11542;BME280;5827;49.482;7.716;2023-04-28T06:00:26;98385.66;;;12.83;100.00
11542;BME280;5827;49.482;7.716;2023-04-28T06:02:27;98386.50;;;12.88;100.00
11542;BME280;5827;49.482;7.716;2023-04-28T06:04:29;98385.94;;;12.81;100.00
11542;BME280;5827;49.482;7.716;2023-04-28T06:06:30;98383.81;;;12.93;100.00
11542;BME280;5827;49.482;7.716;2023-04-28T06:08:33;98391.88;;;12.93;100.00
11542;BME280;5827;49.482;7.716;2023-04-28T06:10:34;98382.72;;;12.94;100.00
11542;BME280;5827;49.482;7.716;2023-04-28T06:12:36;98376.25;;;12.95;100.00
11542;BME280;5827;49.482;7.716;2023-04-28T06:14:37;98377.63;;;12.93;100.00
11542;BME280;5827;49.482;7.716;2023-04-28T06:16:40;98374.66;;;13.00;100.00
11542;BME280;5827;49.482;7.716;2023-04-28T06:18:42;98380.31;;;13.03;100.00
11542;BME280;5827;49.482;7.716;2023-04-28T06:20:43;98397.00;;;13.10;100.00
11542;BME280;5827;49.482;7.716;2023-04-28T06:22:45;98400.50;;;13.11;100.00
11542;BME280;5827;49.482;7.716;2023-04-28T06:24:46;98410.44;;;13.15;100.00
11542;BME280;5827;49.482;7.716;2023-04-28T06:26:48;98400.78;;;13.19;100.00
11542;BME280;5827;49.482;7.716;2023-04-28T06:28:49;98397.81;;;13.21;100.00
11542;BME280;5827;49.482;7.716;2023-04-28T06:30:51;98396.50;;;13.29;100.00
11542;BME280;5827;49.482;7.716;2023-04-28T06:32:54;98399.44;;;13.22;100.00
11542;BME280;5827;49.482;7.716;2023-04-28T06:34:56;98388.94;;;13.15;100.00
11542;BME280;5827;49.482;7.716;2023-04-28T06:36:58;98381.94;;;13.35;100.00
11542;BME280;5827;49.482;7.716;2023-04-28T06:38:59;98373.06;;;13.39;100.00
11542;BME280;5827;49.482;7.716;2023-04-28T06:41:01;98379.22;;;13.65;100.00
11542;BME280;5827;49.482;7.716;2023-04-28T06:43:03;98398.03;;;13.81;100.00
11542;BME280;5827;49.482;7.716;2023-04-28T06:45:05;98413.06;;;13.87;100.00
11542;BME280;5827;49.482;7.716;2023-04-28T06:47:07;98412.56;;;13.85;100.00
11542;BME280;5827;49.482;7.716;2023-04-28T06:49:10;98399.91;;;13.80;100.00
11542;BME280;5827;49.482;7.716;2023-04-28T06:51:11;98387.22;;;13.86;100.00
11542;BME280;5827;49.482;7.716;2023-04-28T06:53:13;98385.31;;;13.96;100.00
11542;BME280;5827;49.482;7.716;2023-04-28T06:55:16;98387.19;;;14.01;100.00
11542;BME280;5827;49.482;7.716;2023-04-28T06:57:18;98389.84;;;14.06;100.00
11542;BME280;5827;49.482;7.716;2023-04-28T06:59:20;98393.59;;;14.20;100.00
11542;BME280;5827;49.482;7.716;2023-04-28T07:01:24;98386.31;;;14.11;100.00
11542;BME280;5827;49.482;7.716;2023-04-28T07:03:28;98397.28;;;14.35;100.00
11542;BME280;5827;49.482;7.716;2023-04-28T07:05:33;98397.09;;;14.21;100.00
11542;BME280;5827;49.482;7.716;2023-04-28T07:07:35;98390.66;;;14.12;100.00
11542;BME280;5827;49.482;7.716;2023-04-28T07:09:37;98399.22;;;14.24;100.00
11542;BME280;5827;49.482;7.716;2023-04-28T07:11:39;98401.66;;;14.26;100.00
11542;BME280;5827;49.482;7.716;2023-04-28T07:13:40;98401.06;;;14.29;100.00
11542;BME280;5827;49.482;7.716;2023-04-28T07:15:43;98390.63;;;14.17;100.00
11542;BME280;5827;49.482;7.716;2023-04-28T07:17:45;98394.72;;;14.04;100.00
11542;BME280;5827;49.482;7.716;2023-04-28T07:19:47;98396.28;;;14.20;100.00
11542;BME280;5827;49.482;7.716;2023-04-28T07:21:51;98401.66;;;14.26;100.00
11542;BME280;5827;49.482;7.716;2023-04-28T07:23:54;98400.81;;;14.30;100.00
11542;BME280;5827;49.482;7.716;2023-04-28T07:25:56;98403.78;;;14.29;100.00
11542;BME280;5827;49.482;7.716;2023-04-28T07:27:57;98404.81;;;14.38;100.00
11542;BME280;5827;49.482;7.716;2023-04-28T07:29:59;98396.47;;;14.39;100.00
11542;BME280;5827;49.482;7.716;2023-04-28T07:32:01;98399.66;;;14.46;100.00
11542;BME280;5827;49.482;7.716;2023-04-28T07:34:04;98390.75;;;14.46;100.00
11542;BME280;5827;49.482;7.716;2023-04-28T07:36:06;98400.97;;;14.59;100.00
11542;BME280;5827;49.482;7.716;2023-04-28T07:38:09;98396.66;;;14.58;100.00
11542;BME280;5827;49.482;7.716;2023-04-28T07:40:11;98390.91;;;14.70;100.00
11542;BME280;5827;49.482;7.716;2023-04-28T07:42:12;98393.09;;;14.68;100.00
11542;BME280;5827;49.482;7.716;2023-04-28T07:44:14;98390.38;;;14.73;100.00
11542;BME280;5827;49.482;7.716;2023-04-28T07:46:15;98387.88;;;14.82;100.00
11542;BME280;5827;49.482;7.716;2023-04-28T07:48:17;98382.66;;;14.95;100.00
11542;BME280;5827;49.482;7.716;2023-04-28T07:50:18;98388.78;;;15.06;100.00
11542;BME280;5827;49.482;7.716;2023-04-28T07:52:19;98374.72;;;15.09;100.00
11542;BME280;5827;49.482;7.716;2023-04-28T07:54:23;98363.06;;;14.80;100.00
11542;BME280;5827;49.482;7.716;2023-04-28T07:56:24;98360.34;;;14.85;100.00
11542;BME280;5827;49.482;7.716;2023-04-28T07:58:26;98364.66;;;15.20;100.00
11542;BME280;5827;49.482;7.716;2023-04-28T08:00:28;98369.94;;;15.35;100.00
11542;BME280;5827;49.482;7.716;2023-04-28T08:02:29;98368.88;;;15.31;100.00
11542;BME280;5827;49.482;7.716;2023-04-28T08:04:33;98367.69;;;15.13;100.00
11542;BME280;5827;49.482;7.716;2023-04-28T08:06:37;98364.63;;;14.91;100.00
11542;BME280;5827;49.482;7.716;2023-04-28T08:08:39;98363.88;;;15.14;100.00
11542;BME280;5827;49.482;7.716;2023-04-28T08:10:42;98368.88;;;15.31;100.00
11542;BME280;5827;49.482;7.716;2023-04-28T08:12:44;98366.41;;;15.35;100.00
11542;BME280;5827;49.482;7.716;2023-04-28T08:14:45;98367.38;;;15.44;100.00
11542;BME280;5827;49.482;7.716;2023-04-28T08:16:47;98376.59;;;15.43;100.00
11542;BME280;5827;49.482;7.716;2023-04-28T08:18:49;98370.44;;;15.66;100.00
11542;BME280;5827;49.482;7.716;2023-04-28T08:20:50;98380.34;;;15.76;100.00
11542;BME280;5827;49.482;7.716;2023-04-28T08:22:52;98380.34;;;15.76;100.00
11542;BME280;5827;49.482;7.716;2023-04-28T08:24:53;98382.22;;;15.75;100.00
11542;BME280;5827;49.482;7.716;2023-04-28T08:26:56;98378.91;;;15.84;100.00
11542;BME280;5827;49.482;7.716;2023-04-28T08:28:58;98382.81;;;15.96;100.00
11542;BME280;5827;49.482;7.716;2023-04-28T08:31:00;98374.03;;;16.10;100.00
11542;BME280;5827;49.482;7.716;2023-04-28T08:33:01;98379.31;;;16.20;100.00
11542;BME280;5827;49.482;7.716;2023-04-28T08:35:03;98383.53;;;16.26;100.00
11542;BME280;5827;49.482;7.716;2023-04-28T08:37:05;98372.72;;;16.26;100.00
11542;BME280;5827;49.482;7.716;2023-04-28T08:39:06;98379.31;;;16.39;100.00
11542;BME280;5827;49.482;7.716;2023-04-28T08:41:08;98386.66;;;16.57;100.00
11542;BME280;5827;49.482;7.716;2023-04-28T08:43:11;98379.41;;;16.52;100.00
11542;BME280;5827;49.482;7.716;2023-04-28T08:45:14;98378.44;;;16.43;100.00
11542;BME280;5827;49.482;7.716;2023-04-28T08:47:17;98387.44;;;16.58;100.00
11542;BME280;5827;49.482;7.716;2023-04-28T08:49:22;98383.78;;;16.30;100.00
11542;BME280;5827;49.482;7.716;2023-04-28T08:51:33;98384.09;;;16.47;100.00
11542;BME280;5827;49.482;7.716;2023-04-28T08:53:37;98388.78;;;16.60;100.00
11542;BME280;5827;49.482;7.716;2023-04-28T08:55:39;98383.78;;;16.30;100.00
11542;BME280;5827;49.482;7.716;2023-04-28T08:57:43;98388.13;;;16.49;100.00
11542;BME280;5827;49.482;7.716;2023-04-28T08:59:46;98384.63;;;16.68;100.00
11542;BME280;5827;49.482;7.716;2023-04-28T09:01:48;98385.59;;;16.77;100.00
11542;BME280;5827;49.482;7.716;2023-04-28T09:03:50;98390.78;;;16.73;100.00
11542;BME280;5827;49.482;7.716;2023-04-28T09:05:54;98385.13;;;16.70;100.00
11542;BME280;5827;49.482;7.716;2023-04-28T09:07:55;98387.47;;;16.76;100.00
11542;BME280;5827;49.482;7.716;2023-04-28T09:10:17;98379.31;;;16.82;100.00
11542;BME280;5827;49.482;7.716;2023-04-28T09:12:19;98378.44;;;16.43;100.00
11542;BME280;5827;49.482;7.716;2023-04-28T09:14:24;98374.38;;;16.46;100.00
11542;BME280;5827;49.482;7.716;2023-04-28T09:16:38;98385.34;;;16.55;100.00
11542;BME280;5827;49.482;7.716;2023-04-28T09:18:54;98391.19;;;16.62;100.00
11542;BME280;5827;49.482;7.716;2023-04-28T09:21:02;98385.63;;;16.53;100.00
11542;BME280;5827;49.482;7.716;2023-04-28T09:23:15;98383.16;;;16.57;100.00
11542;BME280;5827;49.482;7.716;2023-04-28T09:25:17;98384.81;;;16.71;100.00
11542;BME280;5827;49.482;7.716;2023-04-28T09:27:25;98391.47;;;16.60;100.00
11542;BME280;5827;49.482;7.716;2023-04-28T09:29:27;98391.25;;;16.57;100.00
11542;BME280;5827;49.482;7.716;2023-04-28T09:31:30;98390.09;;;17.19;100.00
11542;BME280;5827;49.482;7.716;2023-04-28T09:33:42;98382.06;;;17.14;100.00
11542;BME280;5827;49.482;7.716;2023-04-28T09:35:56;98391.94;;;17.38;100.00
11542;BME280;5827;49.482;7.716;2023-04-28T09:37:58;98392.97;;;17.42;100.00
11542;BME280;5827;49.482;7.716;2023-04-28T09:40:05;98394.66;;;17.38;100.00
11542;BME280;5827;49.482;7.716;2023-04-28T09:42:06;98400.47;;;17.45;100.00
11542;BME280;5827;49.482;7.716;2023-04-28T09:44:09;98400.75;;;17.30;100.00
11542;BME280;5827;49.482;7.716;2023-04-28T09:46:11;98403.66;;;17.33;100.00
11542;BME280;5827;49.482;7.716;2023-04-28T09:48:14;98402.47;;;17.39;100.00
11542;BME280;5827;49.482;7.716;2023-04-28T09:50:16;98403.75;;;17.28;100.00
11542;BME280;5827;49.482;7.716;2023-04-28T09:52:18;98398.75;;;17.35;100.00
11542;BME280;5827;49.482;7.716;2023-04-28T09:54:20;98393.72;;;17.28;100.00
11542;BME280;5827;49.482;7.716;2023-04-28T09:56:23;98401.50;;;17.16;100.00
11542;BME280;5827;49.482;7.716;2023-04-28T09:58:27;98402.25;;;17.03;100.00
11542;BME280;5827;49.482;7.716;2023-04-28T10:00:29;98394.03;;;17.08;100.00
11542;BME280;5827;49.482;7.716;2023-04-28T10:02:35;98404.88;;;17.41;100.00
11542;BME280;5827;49.482;7.716;2023-04-28T10:04:40;98396.34;;;17.34;100.00
11542;BME280;5827;49.482;7.716;2023-04-28T10:06:42;98403.09;;;17.50;100.00
11542;BME280;5827;49.482;7.716;2023-04-28T10:08:45;98403.75;;;17.28;100.00
11542;BME280;5827;49.482;7.716;2023-04-28T10:10:48;98405.19;;;17.39;100.00
11542;BME280;5827;49.482;7.716;2023-04-28T10:12:52;98403.41;;;17.48;100.00
11542;BME280;5827;49.482;7.716;2023-04-28T10:14:54;98394.19;;;17.63;100.00
11542;BME280;5827;49.482;7.716;2023-04-28T10:16:57;98400.34;;;17.69;100.00
11542;BME280;5827;49.482;7.716;2023-04-28T10:19:00;98402.38;;;17.44;100.00
11542;BME280;5827;49.482;7.716;2023-04-28T10:21:05;98397.81;;;17.59;100.00
11542;BME280;5827;49.482;7.716;2023-04-28T10:23:24;98399.13;;;17.61;100.00
11542;BME280;5827;49.482;7.716;2023-04-28T10:25:32;98406.22;;;18.03;100.00
11542;BME280;5827;49.482;7.716;2023-04-28T10:27:36;98407.13;;;17.99;100.00
11542;BME280;5827;49.482;7.716;2023-04-28T10:29:38;98401.22;;;17.97;100.00
11542;BME280;5827;49.482;7.716;2023-04-28T10:32:16;98402.13;;;18.06;100.00
11542;BME280;5827;49.482;7.716;2023-04-28T10:34:21;98399.56;;;17.96;100.00
11542;BME280;5827;49.482;7.716;2023-04-28T10:36:47;98401.31;;;18.19;100.00
11542;BME280;5827;49.482;7.716;2023-04-28T10:39:10;98400.09;;;18.25;100.00
11542;BME280;5827;49.482;7.716;2023-04-28T10:41:32;98390.47;;;18.33;100.00
11542;BME280;5827;49.482;7.716;2023-04-28T10:43:36;98396.91;;;18.60;100.00
11542;BME280;5827;49.482;7.716;2023-04-28T10:46:00;98397.56;;;18.57;100.00
11542;BME280;5827;49.482;7.716;2023-04-28T10:48:03;98395.13;;;18.69;100.00
11542;BME280;5827;49.482;7.716;2023-04-28T10:50:09;98400.19;;;18.48;100.00